Terminal Aerodrome Forecast
Issued by NWS

Home | Current Version | Previous Version | Text Only | Print | Product List | Glossary On
Versions: 1 2 3 4 5 6 7 8 9 10 11 12 13 14
000
FTUS41 KCAR 030533
TAFPQI
TAF
KPQI 030533Z 0306/0406 04004KT 6SM -RA SCT025 OVC040
     FM030700 02004KT 6SM -RA OVC020
     FM030900 02005KT P6SM OVC010
     FM031200 02005KT P6SM OVC025
     FM031800 VRB03KT P6SM BKN035
     FM040400 00000KT P6SM BKN025=

USA.gov is the U.S. government's official web portal to all federal, state and local government web resources and services.